fecha-hora | temperatura | viento dirección-velocidad-rachas | humedad | presión

  • 08-07-2020 09:00:00 | 20.10°C | Este-8.00 km/h - 22.00 km/h | 77.00% | 1014.20 hPa
  • 08-07-2020 07:00:00 | 18.80°C | Este-7.00 km/h - 17.00 km/h | 82.00% | 1013.90 hPa
  • 08-07-2020 06:00:00 | 18.80°C | Este-6.00 km/h - 18.00 km/h | 81.00% | 1013.90 hPa
  • 08-07-2020 05:00:00 | 18.70°C | Este-6.00 km/h - 17.00 km/h | 83.00% | 1014.00 hPa
  • 08-07-2020 04:00:00 | 18.80°C | Este-9.00 km/h - 0.00 km/h | 82.00% | 1014.40 hPa
  • 08-07-2020 03:00:00 | 18.80°C | Este-10.00 km/h - 23.00 km/h | 80.00% | 1014.60 hPa
  • 08-07-2020 02:00:00 | 19.00°C | Este-12.00 km/h - 26.00 km/h | 77.00% | 1015.00 hPa
  • 08-07-2020 01:00:00 | 19.10°C | Este-10.00 km/h - 28.00 km/h | 76.00% | 1015.20 hPa
  • 08-07-2020 00:00:00 | 19.30°C | Este-11.00 km/h - 30.00 km/h | 78.00% | 1015.30 hPa
  • 07-07-2020 23:00:00 | 19.30°C | Este-12.00 km/h - 29.00 km/h | 79.00% | 1015.30 hPa
  • 07-07-2020 22:00:00 | 19.30°C | Este-14.00 km/h - 27.00 km/h | 79.00% | 1015.00 hPa
  • 07-07-2020 21:00:00 | 19.90°C | Este-12.00 km/h - 30.00 km/h | 76.00% | 1014.90 hPa
  • 07-07-2020 20:00:00 | 20.70°C | Este-18.00 km/h - 36.00 km/h | 71.00% | 1014.70 hPa
  • 07-07-2020 19:00:00 | 20.80°C | Este-19.00 km/h - 35.00 km/h | 69.00% | 1015.00 hPa
  • 07-07-2020 18:00:00 | 21.30°C | Este-16.00 km/h - 35.00 km/h | 64.00% | 1015.40 hPa
  • 07-07-2020 17:00:00 | 22.10°C | Este-16.00 km/h - 31.00 km/h | 59.00% | 1016.00 hPa
  • 07-07-2020 16:00:00 | 21.90°C | Nordeste-14.00 km/h - 31.00 km/h | 61.00% | 1016.20 hPa
  • 07-07-2020 14:00:00 | 21.80°C | Este-15.00 km/h - 31.00 km/h | 58.00% | 1016.80 hPa
  • 07-07-2020 14:00:00 | 21.80°C | Este-15.00 km/h - 31.00 km/h | 58.00% | 1016.80 hPa
  • 07-07-2020 13:00:00 | 21.20°C | Este-13.00 km/h - 32.00 km/h | 57.00% | 1016.80 hPa
  • 07-07-2020 12:00:00 | 20.90°C | Este-14.00 km/h - 37.00 km/h | 57.00% | 1017.10 hPa
  • 07-07-2020 11:00:00 | 20.00°C | Este-15.00 km/h - 33.00 km/h | 57.00% | 1017.30 hPa
  • 07-07-2020 10:00:00 | 19.10°C | Este-13.00 km/h - 30.00 km/h | 61.00% | 1017.60 hPa
  • 07-07-2020 09:00:00 | 17.60°C | Este-9.00 km/h - 16.00 km/h | 68.00% | 1017.40 hPa
    • Información sobre el estado de las mareas, altura de la marejada, temperatura del agua y otros datos de Gijón en Asturias.

      Surf Gijón